createdAt,value
2018-07-22T00:00:12.193Z,58.50
2018-07-22T00:05:15.568Z,58.30
2018-07-22T00:10:27.692Z,58.50
2018-07-22T00:15:31.237Z,58.40
2018-07-22T00:20:34.598Z,58.50
2018-07-22T00:25:38.071Z,58.40
2018-07-22T00:30:41.445Z,58.40
2018-07-22T00:35:44.801Z,58.60
2018-07-22T00:40:48.224Z,58.70
2018-07-22T00:45:51.596Z,59.30
2018-07-22T00:50:54.981Z,58.90
2018-07-22T00:55:58.410Z,58.90
2018-07-22T01:01:01.809Z,59.00
2018-07-22T01:06:05.190Z,59.00
2018-07-22T01:11:08.573Z,59.00
2018-07-22T01:16:11.981Z,58.80
2018-07-22T01:21:15.426Z,58.80
2018-07-22T01:26:18.795Z,58.70
2018-07-22T01:31:22.262Z,58.50
2018-07-22T01:36:25.629Z,58.70
2018-07-22T01:41:29.036Z,59.00
2018-07-22T01:46:32.437Z,58.80
2018-07-22T01:51:35.822Z,58.90
2018-07-22T01:56:39.194Z,58.60
2018-07-22T02:01:42.658Z,58.60
2018-07-22T02:06:46.007Z,58.40
2018-07-22T02:11:49.384Z,58.80
2018-07-22T02:16:52.753Z,58.70
2018-07-22T02:21:56.156Z,58.60
2018-07-22T02:26:59.544Z,58.70
2018-07-22T02:32:02.924Z,58.70
2018-07-22T02:37:06.310Z,58.60
2018-07-22T02:42:09.738Z,59.50
2018-07-22T02:47:13.097Z,58.50
2018-07-22T02:52:16.505Z,58.70
2018-07-22T02:57:19.850Z,58.70
2018-07-22T03:02:23.290Z,59.00
2018-07-22T03:07:26.703Z,58.90
2018-07-22T03:12:30.138Z,58.80
2018-07-22T03:17:33.552Z,58.90
2018-07-22T03:27:39.996Z,59.50
2018-07-22T03:32:43.369Z,59.20
2018-07-22T03:37:46.737Z,59.40
2018-07-22T03:42:50.151Z,59.50
2018-07-22T03:47:53.557Z,59.40
2018-07-22T03:52:56.932Z,59.50
2018-07-22T03:58:00.316Z,59.70
2018-07-22T04:03:03.697Z,59.70
2018-07-22T04:08:07.048Z,59.60
2018-07-22T04:13:10.445Z,59.50
2018-07-22T04:18:13.858Z,59.60
2018-07-22T04:23:17.204Z,59.50
2018-07-22T04:28:20.590Z,59.70
2018-07-22T04:33:23.984Z,60.20
2018-07-22T04:38:27.406Z,60.30
2018-07-22T04:43:30.784Z,60.50
2018-07-22T04:48:34.200Z,60.60
2018-07-22T04:53:37.604Z,60.70
2018-07-22T04:58:40.936Z,60.90
2018-07-22T05:03:44.301Z,60.80
2018-07-22T05:08:47.666Z,60.50
2018-07-22T05:13:51.033Z,60.90
2018-07-22T05:18:54.401Z,61.10
2018-07-22T05:23:57.816Z,61.10
2018-07-22T05:29:01.257Z,61.00
2018-07-22T05:34:04.641Z,61.20
2018-07-22T05:39:09.652Z,61.40
2018-07-22T05:44:13.086Z,61.40
2018-07-22T05:49:16.444Z,61.40
2018-07-22T05:54:19.863Z,61.70
2018-07-22T05:59:23.233Z,61.50
2018-07-22T06:04:26.646Z,61.40
2018-07-22T06:09:30.933Z,61.90
2018-07-22T06:14:34.327Z,61.40
2018-07-22T06:19:37.971Z,61.50
2018-07-22T06:24:41.352Z,61.50
2018-07-22T06:29:45.109Z,61.60
2018-07-22T06:34:48.483Z,61.60
2018-07-22T06:44:54.976Z,61.50
2018-07-22T06:49:58.360Z,61.60
2018-07-22T06:55:01.748Z,61.40
2018-07-22T07:00:05.640Z,61.40
2018-07-22T07:05:09.158Z,61.60
2018-07-22T07:10:12.448Z,61.50
2018-07-22T07:15:15.850Z,61.40
2018-07-22T07:20:19.240Z,61.50
2018-07-22T07:25:22.603Z,61.70
2018-07-22T07:30:26.085Z,61.80
2018-07-22T07:35:29.704Z,61.70
2018-07-22T07:40:33.080Z,61.80
2018-07-22T07:45:36.550Z,61.60
2018-07-22T07:50:39.948Z,62.00
2018-07-22T07:55:43.323Z,61.80
2018-07-22T08:00:46.805Z,61.60
2018-07-22T08:05:50.155Z,61.80
2018-07-22T08:15:56.928Z,61.70
2018-07-22T08:21:00.383Z,61.50
2018-07-22T08:26:03.947Z,61.50
2018-07-22T08:31:07.492Z,62.00
2018-07-22T08:36:10.908Z,62.10
2018-07-22T08:41:14.343Z,62.10
2018-07-22T08:46:17.759Z,62.30
2018-07-22T08:51:21.157Z,61.90
2018-07-22T08:56:24.562Z,61.80
2018-07-22T09:01:28.593Z,61.20
2018-07-22T09:06:32.008Z,60.30
2018-07-22T09:11:35.504Z,59.40
2018-07-22T09:16:38.873Z,59.80
2018-07-22T09:26:45.327Z,59.20
2018-07-22T09:31:48.698Z,58.80
2018-07-22T09:36:52.104Z,58.50
2018-07-22T09:41:55.583Z,57.90
2018-07-22T09:46:58.928Z,57.60
2018-07-22T09:52:02.361Z,56.80
2018-07-22T09:57:05.804Z,56.30
2018-07-22T10:02:09.190Z,56.10
2018-07-22T10:07:12.620Z,55.70
2018-07-22T10:12:15.986Z,55.20
2018-07-22T10:17:24.317Z,55.10
2018-07-22T10:22:27.725Z,54.60
2018-07-22T10:27:31.125Z,54.40
2018-07-22T10:32:34.585Z,54.00
2018-07-22T10:37:51.645Z,54.30
2018-07-22T10:42:55.063Z,53.90
2018-07-22T10:47:58.472Z,53.10
2018-07-22T10:53:01.914Z,53.00
2018-07-22T10:58:05.669Z,52.80
2018-07-22T11:03:09.138Z,52.00
2018-07-22T11:08:12.531Z,52.20
2018-07-22T11:13:15.953Z,52.40
2018-07-22T11:18:19.336Z,52.00
2018-07-22T11:23:22.781Z,51.50
2018-07-22T11:33:29.389Z,50.90
2018-07-22T11:38:33.266Z,50.30
2018-07-22T11:43:36.759Z,49.90
2018-07-22T11:48:40.241Z,49.60
2018-07-22T11:53:44.021Z,49.60
2018-07-22T11:58:47.722Z,48.80
2018-07-22T12:03:51.401Z,48.40
2018-07-22T12:08:54.994Z,48.30
2018-07-22T12:13:58.601Z,47.60
2018-07-22T12:19:02.232Z,46.80
2018-07-22T12:24:05.829Z,45.90
2018-07-22T12:29:09.380Z,46.50
2018-07-22T12:34:12.984Z,44.80
2018-07-22T12:39:16.658Z,45.50
2018-07-22T12:49:23.273Z,46.00
2018-07-22T12:54:26.704Z,46.90
2018-07-22T12:59:30.207Z,47.80
2018-07-22T13:04:33.626Z,47.90
2018-07-22T13:09:37.056Z,48.60
2018-07-22T13:14:40.486Z,49.70
2018-07-22T13:19:43.933Z,50.00
2018-07-22T13:24:47.348Z,50.70
2018-07-22T13:29:50.847Z,51.30
2018-07-22T13:34:54.306Z,51.50
2018-07-22T13:39:57.890Z,52.00
2018-07-22T13:45:01.325Z,52.50
2018-07-22T13:50:05.085Z,52.30
2018-07-22T13:55:08.484Z,53.10
2018-07-22T14:00:11.949Z,53.50
2018-07-22T14:05:15.373Z,53.40
2018-07-22T14:10:18.802Z,54.00
2018-07-22T14:15:22.289Z,53.80
2018-07-22T14:20:25.716Z,53.80
2018-07-22T14:25:29.348Z,53.30
2018-07-22T14:30:32.780Z,53.30
2018-07-22T14:35:36.193Z,53.20
2018-07-22T14:40:39.986Z,53.70
2018-07-22T14:45:43.621Z,53.70
2018-07-22T14:50:47.205Z,53.30
2018-07-22T14:55:50.911Z,53.20
2018-07-22T15:00:54.528Z,52.70
2018-07-22T15:05:58.171Z,52.60
2018-07-22T15:11:01.774Z,52.30
2018-07-22T15:16:06.913Z,52.50
2018-07-22T15:21:10.773Z,52.60
2018-07-22T15:26:14.342Z,52.20
2018-07-22T15:31:21.184Z,51.90
2018-07-22T15:36:24.801Z,52.40
2018-07-22T15:41:28.457Z,52.10
2018-07-22T15:46:32.109Z,51.40
2018-07-22T15:51:35.958Z,50.60
2018-07-22T15:56:39.466Z,51.30
2018-07-22T16:06:46.654Z,50.00
2018-07-22T16:11:50.265Z,50.30
2018-07-22T16:16:55.260Z,50.30
2018-07-22T16:22:00.926Z,50.30
2018-07-22T16:27:04.432Z,50.30
2018-07-22T16:32:07.901Z,50.60
2018-07-22T16:37:11.398Z,50.70
2018-07-22T16:42:14.919Z,50.50
2018-07-22T16:47:18.353Z,50.40
2018-07-22T16:52:21.792Z,50.70
2018-07-22T16:57:25.284Z,50.90
2018-07-22T17:02:29.007Z,51.50
2018-07-22T17:07:32.606Z,52.30
2018-07-22T17:12:36.149Z,52.50
2018-07-22T17:17:39.967Z,52.50
2018-07-22T17:22:43.533Z,52.80
2018-07-22T17:27:47.052Z,52.80
2018-07-22T17:32:50.603Z,53.00
2018-07-22T17:37:54.302Z,52.80
2018-07-22T17:42:58.984Z,53.30
2018-07-22T17:48:02.581Z,53.50
2018-07-22T17:58:09.389Z,53.80
2018-07-22T18:08:38.406Z,54.00
2018-07-22T18:13:41.978Z,53.80
2018-07-22T18:18:45.486Z,54.00
2018-07-22T18:23:49.013Z,54.30
2018-07-22T18:33:55.753Z,54.70
2018-07-22T18:38:59.339Z,54.90
2018-07-22T18:44:02.944Z,54.70
2018-07-22T18:54:32.732Z,55.10
2018-07-22T18:59:36.572Z,55.30
2018-07-22T19:09:43.403Z,55.40
2018-07-22T19:14:47.170Z,55.50
2018-07-22T19:19:50.867Z,55.60
2018-07-22T19:24:54.494Z,55.70
2018-07-22T19:29:58.146Z,55.50
2018-07-22T19:35:01.680Z,55.00
2018-07-22T19:40:05.492Z,55.80
2018-07-22T19:45:09.039Z,55.40
2018-07-22T19:50:12.825Z,55.40
2018-07-22T19:55:16.586Z,55.00
2018-07-22T20:00:20.232Z,55.30
2018-07-22T20:05:23.652Z,55.30
2018-07-22T20:10:27.295Z,55.30
2018-07-22T20:15:30.825Z,55.20
2018-07-22T20:20:34.369Z,55.30
2018-07-22T20:25:37.842Z,55.40
2018-07-22T20:30:41.785Z,55.40
2018-07-22T20:35:45.281Z,55.50
2018-07-22T20:40:48.913Z,55.80
2018-07-22T20:45:52.549Z,55.90
2018-07-22T20:50:56.178Z,55.60
2018-07-22T21:01:04.048Z,55.90
2018-07-22T21:06:07.634Z,55.70
2018-07-22T21:11:11.241Z,55.70
2018-07-22T21:16:14.866Z,55.80
2018-07-22T21:21:18.441Z,55.70
2018-07-22T21:26:22.040Z,55.90
2018-07-22T21:31:25.534Z,55.80
2018-07-22T21:36:29.163Z,55.50
2018-07-22T21:41:32.717Z,55.90
2018-07-22T21:46:36.296Z,56.40
2018-07-22T21:51:39.870Z,56.00
2018-07-22T21:56:43.452Z,56.50
2018-07-22T22:01:46.985Z,56.30
2018-07-22T22:06:50.489Z,56.20
2018-07-22T22:11:54.029Z,56.40
2018-07-22T22:16:57.514Z,56.20
2018-07-22T22:22:01.122Z,56.20
2018-07-22T22:27:04.656Z,56.40
2018-07-22T22:32:08.150Z,56.50
2018-07-22T22:37:11.695Z,56.50
2018-07-22T22:42:15.110Z,56.60
2018-07-22T22:47:18.526Z,56.60
2018-07-22T22:57:25.309Z,56.70
2018-07-22T23:02:43.300Z,56.70
2018-07-22T23:07:46.848Z,56.80
2018-07-22T23:12:50.301Z,56.70
2018-07-22T23:17:53.725Z,56.70
2018-07-22T23:22:57.165Z,56.80
2018-07-22T23:28:00.666Z,57.00
2018-07-22T23:33:04.086Z,57.10
2018-07-22T23:38:07.512Z,56.80
2018-07-22T23:43:11.053Z,56.90
2018-07-22T23:48:14.519Z,57.50
2018-07-22T23:53:17.950Z,56.90
2018-07-22T23:58:21.452Z,56.80
